WSSS METAR and TAF | Updated Today

WSSS METAR

Singapore Changi Airport

Observation time: 12 min. ago

WSSS 052000Z VRB01KT 7000 SCT018 BKN150 25/23 Q1008 NOSIG

Need help? Read our tutorial on how to read METARs or read the parsed version below.

Singapore Changi Airport (WSSS) METAR

  • Weather conditions on Sun, 05 Feb 2023 20:00:00 +0000 (12 min. ago):
  • Present conditions: Dry
  • Clouds: Scattered at 549 meters; broken sky at 4572 meters
  • Visibility: 7000 meters
  • Wind: Variable at 1 knots
  • Temperature: 25 celsius
  • Dew point: 23 celsius
  • Pressure: 1008 millibars
  • Remarks: None


Useful to know...

WSSS TAF

Singapore Changi Airport

TAF WSSS 051700Z 0518/0700 35008KT 9999 FEW015 BKN030 TEMPO 0607/0610 3500 TSRA FEW012CB BKN015
Observation time: 3:12 hr. ago
Need help? Read our tutorial on how to read TAFs or read the parsed version below.

Parsed version of TAF for Singapore Changi Airport (WSSS)

  • From 05 February at 18:00 UTC, to day 07 of the month at 00:00 UTC
  • Clouds: A few at 457 meters; broken sky at 914 meters
  • Visibility: Greater than 10 km
  • Wind: 350 degrees at 8
  • Expected to arise temporarily, from 06 February at 07:00 UTC, to day 06 of the month at 10:00 UTC
  • Clouds: A few at 366 meters, cumulonimbus; broken sky at 457 meters
  • Visibility: 3500 meters
  • Other: Thunderstorms rain